Time;durP1;ratioP1;P1;durP2;ratioP2;P2;SDS_P1;SDS_P2;PMS_P1;PMS_P2;Temp;Humidity;BMP_temperature;BMP_pressure;BME280_temperature;BME280_humidity;BME280_pressure;Samples;Min_cycle;Max_cycle;Signal;HPM_P1;HPM_P2
2023/12/31 00:01:10;;;;;;;16.30;12.40;;;;;;;2.46;100.00;100576.45;105779;1256;63866;-77
2023/12/31 00:03:38;;;;;;;17.30;11.60;;;;;;;2.48;100.00;100583.14;105810;1257;72470;-80
2023/12/31 00:06:05;;;;;;;21.10;14.40;;;;;;;2.48;100.00;100584.67;105680;1258;61182;-78
2023/12/31 00:08:32;;;;;;;19.00;12.70;;;;;;;2.50;100.00;100585.82;105847;1253;60606;-79
2023/12/31 00:11:00;;;;;;;19.40;11.40;;;;;;;2.52;100.00;100592.34;105875;1256;73137;-79
2023/12/31 00:13:27;;;;;;;19.70;13.30;;;;;;;2.54;100.00;100588.16;105942;1255;63522;-79
2023/12/31 00:15:54;;;;;;;18.70;12.80;;;;;;;2.56;100.00;100586.36;105742;1257;71215;-80
2023/12/31 00:18:21;;;;;;;19.50;13.40;;;;;;;2.60;100.00;100581.79;105862;1252;61126;-78
2023/12/31 00:20:48;;;;;;;19.10;13.10;;;;;;;2.62;100.00;100578.42;105906;1254;60408;-77
2023/12/31 00:23:15;;;;;;;17.20;12.40;;;;;;;2.65;100.00;100579.02;105903;1254;73789;-76
2023/12/31 00:25:43;;;;;;;19.40;14.20;;;;;;;2.69;100.00;100581.86;105816;1254;63873;-76
2023/12/31 00:28:09;;;;;;;16.80;11.80;;;;;;;2.72;100.00;100579.71;105851;1256;71559;-76
2023/12/31 00:30:36;;;;;;;19.40;13.60;;;;;;;2.75;100.00;100576.35;105916;1256;61140;-76
2023/12/31 00:33:03;;;;;;;17.80;12.10;;;;;;;2.78;100.00;100576.60;108251;1252;60292;-76
2023/12/31 00:35:32;;;;;;;18.00;12.80;;;;;;;2.81;100.00;100572.90;109419;1253;72619;-78
2023/12/31 00:38:01;;;;;;;20.80;14.30;;;;;;;2.85;100.00;100581.41;109597;1253;62291;-76
2023/12/31 00:40:29;;;;;;;21.30;14.30;;;;;;;2.88;100.00;100582.19;106432;1256;71340;-78
2023/12/31 00:42:56;;;;;;;20.30;14.50;;;;;;;2.92;100.00;100578.09;106051;1257;61304;-78
2023/12/31 00:45:23;;;;;;;20.20;15.00;;;;;;;2.96;100.00;100582.47;106043;1265;60441;-77
2023/12/31 00:47:50;;;;;;;24.10;15.80;;;;;;;3.00;100.00;100578.73;105955;1257;72500;-78
2023/12/31 00:50:19;;;;;;;21.70;14.90;;;;;;;3.03;100.00;100575.70;105856;1256;63858;-77
2023/12/31 00:52:45;;;;;;;24.90;15.50;;;;;;;3.06;100.00;100584.77;105792;1255;72746;-77
2023/12/31 00:55:12;;;;;;;23.30;15.00;;;;;;;3.08;100.00;100580.38;105798;1260;60472;-77
2023/12/31 00:57:39;;;;;;;23.90;16.00;;;;;;;3.11;100.00;100578.23;105812;1257;60442;-77
2023/12/31 01:00:07;;;;;;;22.40;15.30;;;;;;;3.12;100.00;100570.60;105706;1260;72711;-78
2023/12/31 01:02:34;;;;;;;24.40;16.40;;;;;;;3.13;100.00;100569.20;105782;1257;62650;-81
2023/12/31 01:05:01;;;;;;;26.30;16.70;;;;;;;3.14;100.00;100565.70;105804;1254;72645;-78
2023/12/31 01:07:28;;;;;;;24.70;16.60;;;;;;;3.17;100.00;100563.22;105882;1256;61101;-78
2023/12/31 01:09:55;;;;;;;26.60;17.70;;;;;;;3.19;100.00;100562.45;105756;1255;60540;-77
2023/12/31 01:12:22;;;;;;;28.90;17.50;;;;;;;3.22;100.00;100564.76;105744;1253;73651;-76
2023/12/31 01:14:49;;;;;;;25.10;17.20;;;;;;;3.25;100.00;100572.61;105752;1252;62472;-77
2023/12/31 01:17:16;;;;;;;27.90;18.90;;;;;;;3.28;100.00;100565.09;105753;1256;72660;-78
2023/12/31 01:19:43;;;;;;;25.00;16.60;;;;;;;3.31;100.00;100567.62;105819;1256;61490;-76
2023/12/31 01:22:10;;;;;;;25.80;16.40;;;;;;;3.32;100.00;100566.88;105947;1256;60431;-77
2023/12/31 01:24:37;;;;;;;29.50;18.30;;;;;;;3.34;100.00;100566.48;105952;1253;73819;-75
2023/12/31 01:27:04;;;;;;;28.80;18.20;;;;;;;3.35;100.00;100563.15;105831;1256;63655;-74
2023/12/31 01:29:33;;;;;;;29.80;19.80;;;;;;;3.36;100.00;100567.11;105687;1258;72706;-78
2023/12/31 01:32:00;;;;;;;26.70;16.50;;;;;;;3.36;100.00;100568.66;105754;1260;60378;-79
2023/12/31 01:34:28;;;;;;;26.70;17.40;;;;;;;3.37;100.00;100568.30;105820;1254;60460;-76
2023/12/31 01:36:55;;;;;;;28.60;18.00;;;;;;;3.37;100.00;100574.00;105836;1252;73624;-78
2023/12/31 01:39:22;;;;;;;26.40;17.50;;;;;;;3.37;100.00;100571.93;105793;1256;63845;-77
2023/12/31 01:41:49;;;;;;;30.30;18.10;;;;;;;3.38;100.00;100575.54;105686;1254;71464;-76
2023/12/31 01:44:16;;;;;;;28.10;18.50;;;;;;;3.38;100.00;100577.61;105766;1256;61189;-79
2023/12/31 01:46:42;;;;;;;27.20;17.50;;;;;;;3.37;100.00;100580.04;105795;1264;60758;-79
2023/12/31 01:49:10;;;;;;;30.40;18.10;;;;;;;3.38;100.00;100579.15;105671;1254;73924;-78
2023/12/31 01:51:38;;;;;;;33.40;19.20;;;;;;;3.38;100.00;100574.83;105863;1256;62633;-78
2023/12/31 01:54:05;;;;;;;28.60;18.50;;;;;;;3.38;100.00;100575.17;105735;1258;72750;-78
2023/12/31 01:56:33;;;;;;;32.50;20.70;;;;;;;3.38;100.00;100569.14;105645;1257;61107;-76
2023/12/31 01:59:00;;;;;;;32.80;18.50;;;;;;;3.37;100.00;100572.27;105774;1258;60375;-77
2023/12/31 02:01:27;;;;;;;30.00;19.70;;;;;;;3.37;100.00;100565.87;105786;1254;73690;-78
2023/12/31 02:03:54;;;;;;;29.60;18.20;;;;;;;3.37;100.00;100566.22;105703;1257;63865;-78
2023/12/31 02:06:21;;;;;;;32.20;19.60;;;;;;;3.36;100.00;100568.49;105837;1253;72662;-77
2023/12/31 02:08:48;;;;;;;30.10;19.40;;;;;;;3.35;100.00;100567.16;105756;1257;61152;-76
2023/12/31 02:11:16;;;;;;;31.90;21.30;;;;;;;3.32;100.00;100568.61;105888;1256;60375;-78
2023/12/31 02:13:44;;;;;;;33.60;19.20;;;;;;;3.29;100.00;100568.34;105785;1253;72328;-79
2023/12/31 02:16:15;;;;;;;27.90;18.60;;;;;;;3.27;100.00;100570.16;105801;1257;63773;-78
2023/12/31 02:18:42;;;;;;;26.70;18.20;;;;;;;3.24;100.00;100576.09;105771;1254;72756;-77
2023/12/31 02:21:09;;;;;;;31.10;21.80;;;;;;;3.22;100.00;100584.98;105780;1257;60484;-80
2023/12/31 02:23:36;;;;;;;27.20;18.50;;;;;;;3.20;100.00;100586.62;105648;1258;60450;-77
2023/12/31 02:26:07;;;;;;;31.80;19.40;;;;;;;3.17;100.00;100594.13;105686;1254;72836;-76
2023/12/31 02:28:35;;;;;;;32.80;21.30;;;;;;;3.14;100.00;100598.37;105848;1257;63743;-76
2023/12/31 02:31:05;;;;;;;33.00;22.60;;;;;;;3.11;100.00;100603.80;105905;1256;72723;-75
2023/12/31 02:33:32;;;;;;;29.00;20.20;;;;;;;3.06;100.00;100608.61;105782;1256;61084;-77
2023/12/31 02:36:02;;;;;;;30.60;20.60;;;;;;;3.01;100.00;100605.48;105766;1254;60409;-77
2023/12/31 02:38:29;;;;;;;34.90;22.90;;;;;;;2.96;100.00;100608.20;105842;1254;73830;-77
2023/12/31 02:40:56;;;;;;;32.20;19.70;;;;;;;2.93;100.00;100603.63;105741;1254;62560;-79
2023/12/31 02:43:23;;;;;;;31.30;20.50;;;;;;;2.89;100.00;100607.89;105807;1255;71384;-77
2023/12/31 02:45:51;;;;;;;34.10;21.10;;;;;;;2.86;100.00;100610.91;105879;1257;60429;-77
2023/12/31 02:48:18;;;;;;;32.40;21.60;;;;;;;2.83;100.00;100608.22;106082;1253;60452;-76
2023/12/31 02:50:45;;;;;;;32.60;21.60;;;;;;;2.79;100.00;100611.44;106135;1257;73708;-77
2023/12/31 02:53:11;;;;;;;32.20;20.50;;;;;;;2.77;100.00;100614.08;105950;1254;63781;-76
2023/12/31 02:55:38;;;;;;;31.90;21.80;;;;;;;2.75;100.00;100615.17;105930;1257;60342;-77
2023/12/31 02:58:05;;;;;;;29.50;19.20;;;;;;;2.73;100.00;100613.85;105784;1257;60451;-77
2023/12/31 03:00:34;;;;;;;35.60;21.40;;;;;;;2.70;100.00;100612.20;105775;1258;60520;-76
2023/12/31 03:03:01;;;;;;;36.10;22.60;;;;;;;2.67;100.00;100614.53;105788;1255;73940;-76
2023/12/31 03:05:28;;;;;;;35.70;23.30;;;;;;;2.64;100.00;100617.90;105752;1256;63926;-77
2023/12/31 03:07:55;;;;;;;34.20;23.00;;;;;;;2.62;100.00;100615.02;106202;1257;72676;-75
2023/12/31 03:10:22;;;;;;;29.50;20.00;;;;;;;2.61;100.00;100611.10;105993;1255;61091;-76
2023/12/31 03:12:49;;;;;;;34.90;21.10;;;;;;;2.58;100.00;100614.94;105833;1254;60360;-76
2023/12/31 03:15:20;;;;;;;35.80;20.60;;;;;;;2.57;100.00;100614.81;105910;1257;73691;-78
2023/12/31 03:17:47;;;;;;;36.10;22.70;;;;;;;2.56;100.00;100613.97;105815;1256;62289;-80
2023/12/31 03:20:13;;;;;;;31.30;20.80;;;;;;;2.56;100.00;100618.30;105821;1254;72804;-77
2023/12/31 03:22:40;;;;;;;34.10;21.30;;;;;;;2.55;100.00;100618.15;105882;1257;61066;-78
2023/12/31 03:25:10;;;;;;;32.90;21.60;;;;;;;2.54;100.00;100615.23;105846;1254;60573;-78
2023/12/31 03:27:37;;;;;;;33.20;21.50;;;;;;;2.53;100.00;100616.83;109455;1254;73892;-77
2023/12/31 03:30:06;;;;;;;36.10;22.60;;;;;;;2.52;100.00;100620.48;108986;1254;62359;-75
2023/12/31 03:32:34;;;;;;;36.60;22.20;;;;;;;2.51;100.00;100617.04;107248;1254;71239;-75
2023/12/31 03:35:01;;;;;;;30.10;20.50;;;;;;;2.49;100.00;100620.20;106727;1255;61227;-75
2023/12/31 03:37:30;;;;;;;34.60;22.50;;;;;;;2.48;100.00;100620.55;105796;1254;60451;-77
2023/12/31 03:39:57;;;;;;;32.70;21.40;;;;;;;2.48;100.00;100620.91;105968;1253;73704;-77
2023/12/31 03:42:25;;;;;;;34.30;21.80;;;;;;;2.48;100.00;100617.11;105818;1254;64173;-79
2023/12/31 03:44:52;;;;;;;35.70;21.60;;;;;;;2.49;100.00;100620.56;105882;1253;71146;-79
2023/12/31 03:47:19;;;;;;;39.20;23.90;;;;;;;2.49;100.00;100620.05;105825;1260;60548;-76
2023/12/31 03:49:46;;;;;;;29.80;20.40;;;;;;;2.48;100.00;100624.38;105727;1254;60348;-79
2023/12/31 03:52:13;;;;;;;34.30;20.90;;;;;;;2.48;100.00;100624.55;105973;1256;72732;-79
2023/12/31 03:54:41;;;;;;;34.50;21.10;;;;;;;2.48;100.00;100624.89;105838;1254;63888;-80
2023/12/31 03:57:08;;;;;;;34.90;21.80;;;;;;;2.48;100.00;100625.23;105878;1257;72408;-78
2023/12/31 03:59:35;;;;;;;31.40;21.00;;;;;;;2.48;100.00;100624.00;105845;1257;61057;-78
2023/12/31 04:02:04;;;;;;;34.90;23.50;;;;;;;2.48;100.00;100626.78;105962;1254;60568;-77
2023/12/31 04:04:31;;;;;;;31.50;21.60;;;;;;;2.48;100.00;100630.74;105895;1256;74548;-76
2023/12/31 04:06:58;;;;;;;34.50;23.20;;;;;;;2.48;100.00;100637.46;105810;1257;62405;-79
2023/12/31 04:09:26;;;;;;;34.90;23.00;;;;;;;2.49;100.00;100644.53;105918;1257;71387;-77
2023/12/31 04:11:53;;;;;;;35.00;23.20;;;;;;;2.49;100.00;100651.77;105855;1257;60470;-78
2023/12/31 04:14:19;;;;;;;37.40;24.30;;;;;;;2.51;100.00;100661.91;105741;1253;60460;-78
2023/12/31 04:16:47;;;;;;;39.20;23.50;;;;;;;2.53;100.00;100665.66;105799;1254;73847;-78
2023/12/31 04:19:14;;;;;;;37.30;23.20;;;;;;;2.55;100.00;100664.76;105889;1257;63785;-78
2023/12/31 04:21:42;;;;;;;38.90;24.10;;;;;;;2.56;100.00;100661.25;105632;1253;71098;-78
2023/12/31 04:24:10;;;;;;;35.90;23.30;;;;;;;2.57;100.00;100658.28;105775;1257;61069;-79
2023/12/31 04:26:41;;;;;;;36.90;23.60;;;;;;;2.59;100.00;100661.88;105877;1254;60393;-77
2023/12/31 04:29:11;;;;;;;36.10;23.40;;;;;;;2.60;100.00;100662.02;105913;1255;72424;-79
2023/12/31 04:31:47;;;;;;;33.10;22.00;;;;;;;2.60;100.00;100664.09;105908;1254;63608;-79
2023/12/31 04:34:19;;;;;;;34.80;22.30;;;;;;;2.60;100.00;100669.96;105876;1256;71075;-78
2023/12/31 04:36:46;;;;;;;34.30;22.60;;;;;;;2.59;100.00;100676.88;105751;1256;60543;-79
2023/12/31 04:39:13;;;;;;;42.60;25.10;;;;;;;2.58;100.00;100678.98;105891;1252;60898;-78
2023/12/31 04:41:41;;;;;;;35.40;22.40;;;;;;;2.58;100.00;100680.55;105887;1254;73750;-76
2023/12/31 04:44:08;;;;;;;37.80;23.70;;;;;;;2.56;100.00;100681.80;105725;1257;62880;-79
2023/12/31 04:46:35;;;;;;;31.70;21.80;;;;;;;2.55;100.00;100682.86;105816;1256;72540;-79
2023/12/31 04:49:03;;;;;;;33.60;22.40;;;;;;;2.54;100.00;100683.05;105936;1255;61143;-79
2023/12/31 04:51:30;;;;;;;36.00;23.70;;;;;;;2.53;100.00;100679.64;105836;1253;60443;-79
2023/12/31 04:53:59;;;;;;;35.50;23.80;;;;;;;2.52;100.00;100681.73;105811;1254;73735;-78
2023/12/31 04:56:27;;;;;;;33.90;21.80;;;;;;;2.50;100.00;100682.13;105924;1256;63002;-76
2023/12/31 04:58:56;;;;;;;31.80;19.60;;;;;;;2.49;100.00;100685.95;105849;1254;72599;-77
2023/12/31 05:01:23;;;;;;;31.70;20.90;;;;;;;2.47;100.00;100686.69;105891;1257;61192;-78
2023/12/31 05:03:50;;;;;;;37.10;22.70;;;;;;;2.46;100.00;100684.81;106014;1253;60463;-79
2023/12/31 05:06:18;;;;;;;32.10;21.90;;;;;;;2.45;100.00;100684.15;106085;1257;73975;-76
2023/12/31 05:08:45;;;;;;;28.20;19.50;;;;;;;2.44;100.00;100686.41;106018;1255;63537;-76
2023/12/31 05:11:14;;;;;;;32.70;20.50;;;;;;;2.44;100.00;100696.06;106057;1252;72631;-76
2023/12/31 05:13:42;;;;;;;29.10;19.90;;;;;;;2.44;100.00;100700.74;106110;1256;60422;-77
2023/12/31 05:16:16;;;;;;;28.80;20.50;;;;;;;2.44;100.00;100701.95;105997;1253;60435;-77
2023/12/31 05:18:53;;;;;;;33.50;21.30;;;;;;;2.43;100.00;100701.11;106513;1254;72443;-74
2023/12/31 05:21:21;;;;;;;35.70;21.20;;;;;;;2.43;100.00;100706.28;106974;1253;62575;-76
2023/12/31 05:23:48;;;;;;;30.70;19.90;;;;;;;2.43;100.00;100709.73;106535;1255;71196;-75
2023/12/31 05:26:16;;;;;;;27.80;18.50;;;;;;;2.43;100.00;100713.17;106798;1255;61204;-76
2023/12/31 05:28:43;;;;;;;33.40;20.60;;;;;;;2.44;100.00;100710.23;106816;1254;61942;-75
2023/12/31 05:31:10;;;;;;;27.80;18.40;;;;;;;2.43;100.00;100712.84;107517;1253;72231;-76
2023/12/31 05:33:37;;;;;;;28.20;19.40;;;;;;;2.44;100.00;100718.50;107051;1254;63724;-77
2023/12/31 05:36:04;;;;;;;31.60;19.80;;;;;;;2.45;100.00;100720.20;107036;1256;72706;-78
2023/12/31 05:38:31;;;;;;;28.60;18.20;;;;;;;2.47;100.00;100720.69;106255;1256;61202;-78
2023/12/31 05:40:58;;;;;;;31.00;19.00;;;;;;;2.48;100.00;100719.95;105873;1256;60374;-80
2023/12/31 05:43:25;;;;;;;34.80;19.10;;;;;;;2.50;100.00;100721.12;105897;1256;73677;-78
2023/12/31 05:45:55;;;;;;;25.00;17.30;;;;;;;2.51;100.00;100717.65;105849;1255;63973;-78
2023/12/31 05:48:22;;;;;;;30.50;19.60;;;;;;;2.52;100.00;100719.88;106027;1259;72934;-77
2023/12/31 05:50:50;;;;;;;25.40;17.50;;;;;;;2.53;100.00;100722.27;106495;1256;60715;-79
2023/12/31 05:53:17;;;;;;;26.10;17.70;;;;;;;2.53;100.00;100726.56;105788;1257;60439;-79
2023/12/31 05:55:45;;;;;;;25.30;17.40;;;;;;;2.53;100.00;100728.29;105789;1255;73800;-79
2023/12/31 05:58:12;;;;;;;26.10;17.00;;;;;;;2.53;100.00;100731.05;105976;1256;62535;-77
2023/12/31 06:00:39;;;;;;;26.30;18.80;;;;;;;2.54;100.00;100737.77;105826;1254;72405;-75
2023/12/31 06:03:06;;;;;;;25.20;18.00;;;;;;;2.56;100.00;100744.10;105923;1256;60420;-79
2023/12/31 06:05:33;;;;;;;25.70;18.30;;;;;;;2.57;100.00;100750.98;105913;1258;60452;-78
2023/12/31 06:08:00;;;;;;;30.80;19.00;;;;;;;2.58;100.00;100758.52;105741;1253;72740;-78
2023/12/31 06:10:27;;;;;;;29.00;18.60;;;;;;;2.60;100.00;100763.52;105862;1252;63636;-80
2023/12/31 06:12:54;;;;;;;26.80;18.30;;;;;;;2.60;100.00;100767.80;105852;1253;72786;-77
2023/12/31 06:15:21;;;;;;;29.30;17.40;;;;;;;2.61;100.00;100769.36;105807;1252;61087;-78
2023/12/31 06:17:48;;;;;;;28.20;19.20;;;;;;;2.62;100.00;100764.32;106993;1251;60143;-77
2023/12/31 06:20:15;;;;;;;24.40;17.30;;;;;;;2.63;100.00;100767.05;107404;1256;72637;-76
2023/12/31 06:22:42;;;;;;;30.00;18.00;;;;;;;2.66;100.00;100766.98;105996;1256;62546;-78
2023/12/31 06:25:09;;;;;;;30.90;18.90;;;;;;;2.68;100.00;100762.10;105818;1253;72588;-78
2023/12/31 06:27:38;;;;;;;28.70;20.00;;;;;;;2.71;100.00;100759.44;105823;1253;61158;-79
2023/12/31 06:30:06;;;;;;;28.00;19.00;;;;;;;2.73;100.00;100758.52;105944;1255;60524;-78
2023/12/31 06:32:33;;;;;;;29.50;18.50;;;;;;;2.75;100.00;100761.93;105750;1252;73926;-79
2023/12/31 06:35:01;;;;;;;29.80;17.50;;;;;;;2.76;100.00;100765.16;105870;1253;62485;-78
2023/12/31 06:37:28;;;;;;;26.00;16.00;;;;;;;2.79;100.00;100763.03;105850;1253;72675;-78
2023/12/31 06:39:55;;;;;;;27.30;16.70;;;;;;;2.82;100.00;100765.02;105926;1252;61113;-80
2023/12/31 06:42:22;;;;;;;22.70;16.10;;;;;;;2.84;100.00;100768.25;106118;1255;60345;-78
2023/12/31 06:44:49;;;;;;;27.40;17.70;;;;;;;2.86;100.00;100769.91;106025;1255;73699;-77
2023/12/31 06:47:16;;;;;;;23.60;15.30;;;;;;;2.89;100.00;100765.19;105927;1253;63729;-78
2023/12/31 06:49:44;;;;;;;18.90;13.20;;;;;;;2.92;100.00;100770.98;105961;1252;72661;-78
2023/12/31 06:52:13;;;;;;;20.00;13.70;;;;;;;2.97;100.00;100766.72;105786;1254;59666;-79
2023/12/31 06:54:41;;;;;;;20.30;13.20;;;;;;;3.02;100.00;100767.59;105888;1252;60537;-78
2023/12/31 06:57:09;;;;;;;19.50;13.90;;;;;;;3.08;100.00;100770.20;105921;1253;73502;-79
2023/12/31 06:59:36;;;;;;;19.80;13.40;;;;;;;3.15;100.00;100771.23;106057;1255;63119;-78
2023/12/31 07:02:03;;;;;;;24.20;13.40;;;;;;;3.22;100.00;100773.13;106257;1254;72678;-80
2023/12/31 07:04:30;;;;;;;18.70;13.30;;;;;;;3.27;100.00;100781.61;106082;1255;61003;-79
2023/12/31 07:06:58;;;;;;;16.70;11.80;;;;;;;3.35;100.00;100779.85;106004;1253;60549;-78
2023/12/31 07:09:25;;;;;;;19.60;13.80;;;;;;;3.42;100.00;100779.31;106087;1252;73828;-78
2023/12/31 07:11:52;;;;;;;20.00;12.40;;;;;;;3.52;100.00;100781.27;105925;1252;62319;-79
2023/12/31 07:14:21;;;;;;;14.90;9.90;;;;;;;3.65;100.00;100782.30;105937;1255;72648;-79
2023/12/31 07:16:47;;;;;;;17.30;11.10;;;;;;;3.75;100.00;100779.05;105883;1253;60545;-79
2023/12/31 07:19:14;;;;;;;17.00;10.70;;;;;;;3.84;100.00;100787.27;105867;1256;60433;-80
2023/12/31 07:21:41;;;;;;;15.80;10.90;;;;;;;3.92;100.00;100794.29;105979;1255;73731;-78
2023/12/31 07:24:08;;;;;;;15.50;10.30;;;;;;;4.00;100.00;100806.51;105815;1255;63009;-80
2023/12/31 07:26:35;;;;;;;15.90;10.80;;;;;;;4.03;100.00;100803.14;105809;1253;72580;-77
2023/12/31 07:29:03;;;;;;;15.10;10.90;;;;;;;4.05;100.00;100801.35;105881;1256;61237;-79
2023/12/31 07:31:37;;;;;;;;;;;;;;;4.08;100.00;100806.77;105997;1256;60533;-79
2023/12/31 07:34:05;;;;;;;15.80;10.10;;;;;;;4.10;100.00;100811.95;105951;1255;73912;-79
2023/12/31 07:36:32;;;;;;;17.30;12.30;;;;;;;4.11;100.00;100811.54;105887;1255;63771;-79
2023/12/31 07:38:59;;;;;;;19.30;11.00;;;;;;;4.15;100.00;100814.55;105849;1256;72468;-79
2023/12/31 07:41:26;;;;;;;15.30;10.70;;;;;;;4.18;100.00;100809.29;105860;1256;61153;-80
2023/12/31 07:43:54;;;;;;;16.50;10.80;;;;;;;4.24;100.00;100807.88;105759;1252;60873;-78
2023/12/31 07:46:21;;;;;;;15.40;11.20;;;;;;;4.35;100.00;100815.84;105947;1255;73846;-78
2023/12/31 07:48:48;;;;;;;21.30;12.40;;;;;;;4.47;100.00;100818.57;105916;1252;63728;-78
2023/12/31 07:51:15;;;;;;;19.30;12.00;;;;;;;4.62;100.00;100819.67;105889;1253;71085;-80
2023/12/31 07:53:42;;;;;;;24.00;11.80;;;;;;;4.75;100.00;100820.64;105950;1253;60365;-78
2023/12/31 07:56:09;;;;;;;18.30;11.40;;;;;;;4.85;100.00;100825.17;105893;1253;60530;-78
2023/12/31 07:58:36;;;;;;;21.10;12.20;;;;;;;4.93;100.00;100823.85;105811;1256;73893;-80
2023/12/31 08:01:03;;;;;;;22.40;12.00;;;;;;;4.99;100.00;100824.33;105909;1255;63876;-80
2023/12/31 08:03:31;;;;;;;18.10;10.50;;;;;;;5.02;100.00;100820.95;105961;1253;72528;-77
2023/12/31 08:05:57;;;;;;;22.60;11.40;;;;;;;5.03;100.00;100822.31;105998;1253;60518;-77
2023/12/31 08:08:25;;;;;;;19.20;11.50;;;;;;;5.03;100.00;100823.02;106058;1253;60432;-79
2023/12/31 08:10:52;;;;;;;20.10;11.60;;;;;;;5.02;100.00;100825.28;105893;1256;73818;-80
2023/12/31 08:13:19;;;;;;;20.10;11.20;;;;;;;5.03;100.00;100830.64;105900;1256;63833;-78
2023/12/31 08:15:46;;;;;;;16.20;11.50;;;;;;;5.03;100.00;100837.38;105921;1253;71460;-79
2023/12/31 08:18:12;;;;;;;20.30;12.00;;;;;;;5.03;100.00;100834.94;105891;1256;61044;-81
2023/12/31 08:20:39;;;;;;;15.90;11.00;;;;;;;5.03;100.00;100836.52;105963;1253;60349;-79
2023/12/31 08:23:07;;;;;;;17.60;11.40;;;;;;;5.01;100.00;100837.44;105784;1252;297961;-79
2023/12/31 08:26:45;;;;;;;17.70;11.00;;;;;;;5.00;100.00;100832.10;102778;1293;601679;-79
2023/12/31 08:29:12;;;;;;;23.20;12.10;;;;;;;4.99;100.00;100836.30;104950;1267;59794;-81
2023/12/31 08:31:40;;;;;;;20.70;12.10;;;;;;;4.99;100.00;100835.05;104861;1272;59296;-78
2023/12/31 08:34:09;;;;;;;19.50;12.70;;;;;;;4.99;100.00;100830.56;105459;1257;70658;-81
2023/12/31 08:36:37;;;;;;;20.50;13.20;;;;;;;5.01;100.00;100825.67;105464;1257;62262;-79
2023/12/31 08:39:06;;;;;;;24.90;15.50;;;;;;;5.02;100.00;100828.77;105467;1262;73420;-80
2023/12/31 08:41:35;;;;;;;28.00;16.00;;;;;;;5.04;100.00;100830.77;105596;1260;61007;-81
2023/12/31 08:44:03;;;;;;;23.90;16.00;;;;;;;5.05;100.00;100837.66;105674;1255;59368;-82
2023/12/31 08:46:31;;;;;;;29.50;16.90;;;;;;;5.06;100.00;100838.30;105654;1254;72354;-81
2023/12/31 08:48:58;;;;;;;28.10;16.80;;;;;;;5.07;100.00;100836.53;105788;1259;63670;-80
2023/12/31 08:51:26;;;;;;;31.80;16.70;;;;;;;5.10;100.00;100834.05;105595;1254;72633;-80
2023/12/31 08:53:54;;;;;;;28.30;16.70;;;;;;;5.13;100.00;100833.23;105644;1257;60026;-79
2023/12/31 08:56:21;;;;;;;23.60;15.60;;;;;;;5.18;100.00;100829.41;105749;1256;59669;-81
2023/12/31 08:58:49;;;;;;;31.60;17.90;;;;;;;5.22;100.00;100828.60;105536;1253;73046;-79
2023/12/31 09:01:18;;;;;;;25.40;14.50;;;;;;;5.24;100.00;100829.38;105625;1256;63533;-81
2023/12/31 09:03:45;;;;;;;24.10;13.20;;;;;;;5.34;100.00;100834.07;105621;1257;71384;-80
2023/12/31 09:06:13;;;;;;;21.80;11.70;;;;;;;5.49;100.00;100836.85;105616;1260;60409;-80
2023/12/31 09:08:40;;;;;;;21.20;8.20;;;;;;;5.68;100.00;100837.04;105570;1254;60008;-81
2023/12/31 09:11:08;;;;;;;20.30;9.80;;;;;;;5.88;100.00;100834.74;105678;1254;73043;-79
2023/12/31 09:13:36;;;;;;;16.30;8.10;;;;;;;6.09;100.00;100829.30;105649;1256;63641;-81
2023/12/31 09:16:03;;;;;;;20.10;7.90;;;;;;;6.28;100.00;100832.92;105730;1258;72640;-81
2023/12/31 09:18:31;;;;;;;16.50;7.20;;;;;;;6.44;100.00;100839.08;105644;1259;60968;-80
2023/12/31 09:20:59;;;;;;;12.60;6.50;;;;;;;6.58;100.00;100836.77;105809;1254;59928;-80
2023/12/31 09:23:26;;;;;;;14.50;6.40;;;;;;;6.71;100.00;100837.96;105657;1259;73483;-80
2023/12/31 09:25:55;;;;;;;21.20;9.10;;;;;;;6.82;100.00;100841.00;105746;1254;63383;-81
2023/12/31 09:28:22;;;;;;;23.00;9.80;;;;;;;6.94;100.00;100842.97;105656;1257;71438;-81
2023/12/31 09:30:50;;;;;;;27.20;10.10;;;;;;;7.01;100.00;100846.30;105594;1254;59628;-78
2023/12/31 09:33:18;;;;;;;22.00;8.80;;;;;;;7.09;100.00;100839.05;105688;1254;59785;-81
2023/12/31 09:35:45;;;;;;;22.90;11.90;;;;;;;7.17;100.00;100832.61;105561;1254;72280;-82
2023/12/31 09:38:13;;;;;;;20.10;12.10;;;;;;;7.24;100.00;100833.36;105554;1254;63867;-82
2023/12/31 09:40:41;;;;;;;20.30;10.70;;;;;;;7.33;100.00;100828.98;105627;1257;71776;-81
2023/12/31 09:43:10;;;;;;;21.70;11.40;;;;;;;7.40;100.00;100832.98;105614;1254;60831;-82
2023/12/31 09:45:38;;;;;;;19.90;12.50;;;;;;;7.48;100.00;100835.09;105708;1254;59789;-80
2023/12/31 09:48:07;;;;;;;19.90;11.90;;;;;;;7.56;100.00;100832.16;105566;1254;72469;-82
2023/12/31 09:50:35;;;;;;;25.00;11.10;;;;;;;7.65;100.00;100828.63;105628;1255;62479;-79
2023/12/31 09:53:04;;;;;;;20.00;11.20;;;;;;;7.73;100.00;100830.69;105663;1257;72648;-79
2023/12/31 09:55:34;;;;;;;18.30;10.50;;;;;;;7.81;100.00;100832.45;105600;1257;59858;-80
2023/12/31 09:58:02;;;;;;;19.40;11.80;;;;;;;7.84;100.00;100831.92;105432;1254;60787;-81
2023/12/31 10:00:30;;;;;;;19.40;12.10;;;;;;;7.81;100.00;100830.68;105444;1254;73682;-81
2023/12/31 10:02:58;;;;;;;18.50;9.80;;;;;;;7.75;100.00;100823.29;105479;1254;62331;-81
2023/12/31 10:05:25;;;;;;;16.20;8.40;;;;;;;7.69;100.00;100825.28;105784;1254;72707;-80
2023/12/31 10:07:54;;;;;;;13.00;6.40;;;;;;;7.66;100.00;100821.09;105542;1256;59647;-81
2023/12/31 10:10:22;;;;;;;15.00;7.00;;;;;;;7.61;100.00;100820.64;105625;1258;59762;-78
2023/12/31 10:12:50;;;;;;;13.40;6.30;;;;;;;7.53;100.00;100817.48;105869;1254;72583;-79
2023/12/31 10:15:18;;;;;;;16.40;6.30;;;;;;;7.46;100.00;100817.45;105738;1259;63620;-81
2023/12/31 10:17:46;;;;;;;9.30;5.50;;;;;;;7.40;100.00;100817.19;105744;1257;71444;-78
2023/12/31 10:20:13;;;;;;;13.90;6.20;;;;;;;7.34;100.00;100812.95;105493;1257;59777;-80
2023/12/31 10:22:41;;;;;;;11.10;5.20;;;;;;;7.27;100.00;100809.73;105639;1259;59685;-80
2023/12/31 10:25:13;;;;;;;15.10;5.50;;;;;;;7.24;100.00;100806.59;105649;1254;70527;-81
2023/12/31 10:27:47;;;;;;;12.80;4.70;;;;;;;7.25;100.00;100803.92;105782;1254;63911;-81
2023/12/31 10:30:16;;;;;;;;;;;;;;;7.30;100.00;100803.55;105711;1257;71454;-81
2023/12/31 10:32:43;;;;;;;17.30;5.20;;;;;;;7.37;100.00;100802.00;105881;1254;59494;-79
2023/12/31 10:35:11;;;;;;;8.30;5.00;;;;;;;7.45;100.00;100797.66;105752;1254;59590;-81
2023/12/31 10:37:40;;;;;;;12.00;5.30;;;;;;;7.53;100.00;100798.34;105487;1254;73045;-80
2023/12/31 10:40:19;;;;;;;15.90;5.40;;;;;;;7.60;100.00;100800.98;105634;1259;62894;-82
2023/12/31 10:42:49;;;;;;;8.40;4.10;;;;;;;7.68;100.00;100802.89;105535;1259;72874;-80
2023/12/31 10:45:18;;;;;;;13.10;5.30;;;;;;;7.77;100.00;100804.75;105485;1254;60958;-81
2023/12/31 10:47:50;;;;;;;16.90;5.90;;;;;;;7.87;100.00;100809.02;105537;1259;59678;-79
2023/12/31 10:50:23;;;;;;;18.80;8.80;;;;;;;7.95;100.00;100805.53;105638;1254;73144;-80
2023/12/31 10:52:53;;;;;;;22.90;10.30;;;;;;;7.94;100.00;100799.83;105742;1254;62358;-79
2023/12/31 10:55:21;;;;;;;35.40;11.90;;;;;;;7.88;100.00;100800.94;105826;1258;71158;-79
2023/12/31 10:57:50;;;;;;;32.30;13.00;;;;;;;7.83;100.00;100800.82;105483;1258;59893;-80
2023/12/31 11:00:19;;;;;;;21.30;8.90;;;;;;;7.78;100.00;100802.28;105486;1254;59728;-80
2023/12/31 11:02:47;;;;;;;20.30;7.90;;;;;;;7.73;100.00;100806.36;105583;1254;71834;-80
2023/12/31 11:05:15;;;;;;;20.30;6.50;;;;;;;7.66;100.00;100801.59;105746;1254;62359;-80